Time;durP1;ratioP1;P1;durP2;ratioP2;P2;SDS_P1;SDS_P2;PMS_P1;PMS_P2;Temp;Humidity;BMP_temperature;BMP_pressure;BME280_temperature;BME280_humidity;BME280_pressure;Samples;Min_cycle;Max_cycle;Signal;HPM_P1;HPM_P2
2022/12/01 00:00:06;;;;;;;51.13;28.77;;;;;;;;;;5007078;28;20260;-80
2022/12/01 00:02:32;;;;;;;52.77;28.73;;;;;;;;;;4990021;28;20193;-81
2022/12/01 00:04:58;;;;;;;49.50;29.80;;;;;;;;;;5016637;28;20231;-81
2022/12/01 00:07:24;;;;;;;55.40;29.97;;;;;;;;;;4991404;28;20182;-81
2022/12/01 00:12:35;;;;;;;53.20;29.07;;;;;;;;;;5008306;28;20204;-80
2022/12/01 00:15:01;;;;;;;52.43;29.90;;;;;;;;;;5016151;28;20185;-80
2022/12/01 00:17:30;;;;;;;51.37;29.47;;;;;;;;;;4990770;28;20311;-80
2022/12/01 00:19:56;;;;;;;58.13;32.13;;;;;;;;;;4991035;28;20189;-80
2022/12/01 00:22:22;;;;;;;52.67;31.13;;;;;;;;;;5016588;28;20247;-80
2022/12/01 00:24:51;;;;;;;60.43;32.80;;;;;;;;;;5007174;28;20220;-80
2022/12/01 00:27:17;;;;;;;59.20;33.73;;;;;;;;;;5002719;28;20205;-80
2022/12/01 00:29:43;;;;;;;60.63;33.47;;;;;;;;;;5007287;28;20177;-80
2022/12/01 00:32:09;;;;;;;59.73;32.90;;;;;;;;;;5016230;28;20269;-79
2022/12/01 00:34:36;;;;;;;61.50;33.07;;;;;;;;;;4990785;28;20275;-80
2022/12/01 00:37:02;;;;;;;68.07;34.60;;;;;;;;;;5006886;28;20288;-80
2022/12/01 00:39:28;;;;;;;60.77;33.87;;;;;;;;;;5013423;28;20184;-80
2022/12/01 00:41:54;;;;;;;62.23;34.07;;;;;;;;;;5006014;28;20185;-80
2022/12/01 00:44:20;;;;;;;63.00;35.17;;;;;;;;;;5003054;28;20240;-78
2022/12/01 00:46:46;;;;;;;64.10;34.80;;;;;;;;;;5007279;28;20207;-77
2022/12/01 00:49:13;;;;;;;62.70;34.17;;;;;;;;;;5004868;28;20249;-77
2022/12/01 00:51:39;;;;;;;63.97;35.87;;;;;;;;;;5007745;28;20196;-78
2022/12/01 00:54:05;;;;;;;66.70;35.63;;;;;;;;;;5006569;28;20181;-78
2022/12/01 00:56:31;;;;;;;62.57;35.47;;;;;;;;;;5006700;28;20216;-77
2022/12/01 00:58:57;;;;;;;65.83;35.83;;;;;;;;;;4986092;28;20186;-78
2022/12/01 01:01:23;;;;;;;63.03;35.03;;;;;;;;;;5003905;28;20292;-79
2022/12/01 01:03:49;;;;;;;67.30;36.27;;;;;;;;;;5015627;28;20177;-79
2022/12/01 01:06:16;;;;;;;65.30;35.60;;;;;;;;;;5006318;28;20200;-79
2022/12/01 01:08:42;;;;;;;65.37;35.73;;;;;;;;;;5014169;28;20224;-79
2022/12/01 01:11:08;;;;;;;62.70;35.53;;;;;;;;;;5004586;28;20209;-79
2022/12/01 01:13:35;;;;;;;63.57;35.40;;;;;;;;;;4982098;28;20185;-79
2022/12/01 01:16:05;;;;;;;55.57;32.60;;;;;;;;;;5008495;28;20212;-79
2022/12/01 01:18:32;;;;;;;57.17;34.47;;;;;;;;;;5002975;28;20245;-84
2022/12/01 01:20:59;;;;;;;57.60;33.67;;;;;;;;;;5001167;28;20184;-83
2022/12/01 01:23:25;;;;;;;57.93;33.40;;;;;;;;;;5013193;28;20182;-84
2022/12/01 01:25:51;;;;;;;56.77;33.33;;;;;;;;;;5014693;28;20256;-84
2022/12/01 01:28:18;;;;;;;52.77;32.43;;;;;;;;;;5001886;28;20191;-84
2022/12/01 01:30:44;;;;;;;57.97;33.87;;;;;;;;;;5004800;28;20320;-83
2022/12/01 01:33:10;;;;;;;55.63;32.43;;;;;;;;;;5002954;28;20307;-83
2022/12/01 01:35:36;;;;;;;57.17;33.43;;;;;;;;;;5006194;28;20227;-79
2022/12/01 01:38:02;;;;;;;52.40;33.47;;;;;;;;;;4989107;28;20205;-79
2022/12/01 01:40:28;;;;;;;52.70;32.17;;;;;;;;;;5006266;28;20177;-79
2022/12/01 01:42:54;;;;;;;55.10;33.07;;;;;;;;;;5002312;28;20233;-80
2022/12/01 01:45:25;;;;;;;57.83;33.20;;;;;;;;;;4987800;28;20190;-80
2022/12/01 01:47:52;;;;;;;58.33;34.27;;;;;;;;;;5004616;28;20267;-80
2022/12/01 01:50:20;;;;;;;57.97;33.70;;;;;;;;;;5007051;28;20192;-80
2022/12/01 01:52:51;;;;;;;55.57;33.93;;;;;;;;;;5006934;28;20236;-79
2022/12/01 01:55:19;;;;;;;60.27;34.40;;;;;;;;;;5008225;28;20184;-79
2022/12/01 01:57:45;;;;;;;60.57;34.37;;;;;;;;;;4994524;28;20216;-79
2022/12/01 02:00:13;;;;;;;58.17;34.47;;;;;;;;;;5006758;28;20193;-79
2022/12/01 02:02:42;;;;;;;60.43;33.80;;;;;;;;;;5004575;28;20181;-79
2022/12/01 02:05:09;;;;;;;56.03;33.40;;;;;;;;;;5006531;28;20187;-79
2022/12/01 02:07:38;;;;;;;60.83;34.40;;;;;;;;;;4997179;28;20204;-83
2022/12/01 02:10:06;;;;;;;57.30;34.80;;;;;;;;;;5006432;28;20200;-83
2022/12/01 02:12:32;;;;;;;57.37;35.23;;;;;;;;;;5005025;28;20268;-84
2022/12/01 02:15:15;;;;;;;57.40;33.97;;;;;;;;;;5001983;28;20264;-84
2022/12/01 02:17:54;;;;;;;60.27;35.13;;;;;;;;;;5002845;28;20201;-84
2022/12/01 02:20:38;;;;;;;61.83;34.90;;;;;;;;;;5002702;28;20185;-84
2022/12/01 02:23:16;;;;;;;62.03;36.23;;;;;;;;;;5002237;28;20181;-84
2022/12/01 02:25:58;;;;;;;61.07;35.57;;;;;;;;;;5004935;28;20184;-84
2022/12/01 02:28:27;;;;;;;62.27;35.17;;;;;;;;;;5002952;28;20196;-84
2022/12/01 02:30:56;;;;;;;57.93;34.53;;;;;;;;;;5004033;28;20185;-83
2022/12/01 02:33:28;;;;;;;56.37;33.87;;;;;;;;;;5003657;28;20211;-83
2022/12/01 02:36:00;;;;;;;59.67;34.47;;;;;;;;;;5021201;28;20176;-83
2022/12/01 02:38:32;;;;;;;58.17;33.77;;;;;;;;;;5021696;28;20209;-83
2022/12/01 02:40:58;;;;;;;59.10;34.23;;;;;;;;;;5006873;28;20183;-79
2022/12/01 02:43:44;;;;;;;60.63;34.90;;;;;;;;;;5016112;28;20303;-79
2022/12/01 02:46:10;;;;;;;60.23;34.47;;;;;;;;;;5014571;28;20177;-79
2022/12/01 02:48:38;;;;;;;59.60;34.47;;;;;;;;;;5014164;28;20195;-79
2022/12/01 02:51:07;;;;;;;62.17;35.63;;;;;;;;;;5009490;28;20189;-79
2022/12/01 02:53:33;;;;;;;62.80;35.23;;;;;;;;;;5008756;28;20192;-79
2022/12/01 02:55:59;;;;;;;60.87;33.17;;;;;;;;;;5014212;28;20200;-79
2022/12/01 02:58:25;;;;;;;66.37;34.97;;;;;;;;;;4996276;28;20237;-79
2022/12/01 03:01:17;;;;;;;56.97;33.37;;;;;;;;;;4996995;28;20211;-79
2022/12/01 03:03:57;;;;;;;58.77;34.27;;;;;;;;;;4996204;28;20189;-79
2022/12/01 03:06:26;;;;;;;62.00;34.43;;;;;;;;;;5014181;28;20181;-79
2022/12/01 03:09:01;;;;;;;61.93;34.53;;;;;;;;;;4996810;28;20256;-79
2022/12/01 03:11:35;;;;;;;62.23;33.93;;;;;;;;;;5013813;28;20252;-79
2022/12/01 03:14:36;;;;;;;64.83;34.87;;;;;;;;;;4996251;28;20292;-79
2022/12/01 03:17:07;;;;;;;68.83;35.90;;;;;;;;;;4918567;29;20208;-78
2022/12/01 03:19:59;;;;;;;72.33;36.97;;;;;;;;;;4983872;28;20188;-79
2022/12/01 03:22:28;;;;;;;64.83;35.43;;;;;;;;;;5015014;28;20271;-79
2022/12/01 03:24:55;;;;;;;65.40;36.10;;;;;;;;;;5017823;28;20187;-79
2022/12/01 03:27:26;;;;;;;68.20;37.33;;;;;;;;;;5000460;28;20271;-79
2022/12/01 03:29:54;;;;;;;62.10;35.03;;;;;;;;;;5017585;28;20208;-79
2022/12/01 03:32:24;;;;;;;64.47;35.47;;;;;;;;;;5017499;28;20189;-79
2022/12/01 03:34:56;;;;;;;65.47;35.70;;;;;;;;;;4995685;28;20195;-79
2022/12/01 03:37:27;;;;;;;62.70;36.20;;;;;;;;;;4999602;28;20227;-79
2022/12/01 03:39:56;;;;;;;66.70;36.27;;;;;;;;;;5015807;28;20192;-79
2022/12/01 03:42:54;;;;;;;62.07;36.47;;;;;;;;;;5017166;28;20268;-79
2022/12/01 03:45:24;;;;;;;65.53;36.37;;;;;;;;;;4974585;28;20201;-79
2022/12/01 03:47:50;;;;;;;63.90;35.67;;;;;;;;;;5014676;28;20217;-79
2022/12/01 03:50:17;;;;;;;67.27;38.37;;;;;;;;;;5009535;28;20181;-79
2022/12/01 03:53:19;;;;;;;70.63;37.47;;;;;;;;;;5000028;28;20181;-79
2022/12/01 03:55:46;;;;;;;65.43;36.77;;;;;;;;;;4918586;29;20217;-79
2022/12/01 03:58:16;;;;;;;68.73;37.07;;;;;;;;;;4981527;28;20312;-79
2022/12/01 04:00:43;;;;;;;65.03;37.07;;;;;;;;;;5017064;28;20192;-79
2022/12/01 04:03:15;;;;;;;67.47;37.53;;;;;;;;;;5016386;28;20177;-79
2022/12/01 04:05:41;;;;;;;66.50;36.63;;;;;;;;;;5017443;28;20177;-79
2022/12/01 04:08:07;;;;;;;67.77;35.63;;;;;;;;;;5000087;28;20324;-79
2022/12/01 04:10:33;;;;;;;68.50;36.50;;;;;;;;;;5016810;28;20264;-79
2022/12/01 04:12:59;;;;;;;63.60;35.53;;;;;;;;;;5017126;28;20196;-79
2022/12/01 04:15:26;;;;;;;63.20;36.00;;;;;;;;;;4999325;28;20194;-79
2022/12/01 04:17:52;;;;;;;67.93;37.23;;;;;;;;;;4999420;28;20255;-79
2022/12/01 04:20:18;;;;;;;62.23;36.23;;;;;;;;;;4999596;28;20189;-79
2022/12/01 04:22:45;;;;;;;64.33;35.77;;;;;;;;;;5016485;28;20193;-77
2022/12/01 04:25:11;;;;;;;66.97;35.87;;;;;;;;;;4999023;28;20192;-77
2022/12/01 04:27:37;;;;;;;61.23;35.83;;;;;;;;;;5016296;28;20312;-77
2022/12/01 04:30:04;;;;;;;68.93;36.13;;;;;;;;;;4983117;28;20189;-77
2022/12/01 04:32:30;;;;;;;58.67;35.10;;;;;;;;;;4998276;28;20192;-77
2022/12/01 04:34:56;;;;;;;61.17;36.67;;;;;;;;;;4999001;28;20185;-77
2022/12/01 04:37:22;;;;;;;68.73;38.00;;;;;;;;;;4998928;28;20212;-77
2022/12/01 04:39:48;;;;;;;64.77;36.13;;;;;;;;;;4999018;28;20189;-79
2022/12/01 04:42:14;;;;;;;65.37;36.23;;;;;;;;;;4982948;28;20181;-80
2022/12/01 04:44:40;;;;;;;67.43;37.73;;;;;;;;;;4995469;28;20225;-79
2022/12/01 04:47:06;;;;;;;64.87;36.60;;;;;;;;;;4995663;28;20193;-79
2022/12/01 04:49:34;;;;;;;63.53;36.90;;;;;;;;;;4996783;28;20186;-79
2022/12/01 04:52:00;;;;;;;59.70;35.07;;;;;;;;;;4980048;28;20182;-79
2022/12/01 04:54:26;;;;;;;61.43;36.47;;;;;;;;;;4997094;28;20201;-77
2022/12/01 04:56:52;;;;;;;67.40;36.43;;;;;;;;;;4996319;28;20217;-78
2022/12/01 04:59:18;;;;;;;65.47;36.63;;;;;;;;;;4986466;28;20197;-78
2022/12/01 05:01:45;;;;;;;61.53;35.97;;;;;;;;;;4979432;28;20182;-78
2022/12/01 05:04:14;;;;;;;60.63;36.67;;;;;;;;;;4978468;28;20277;-78
2022/12/01 05:06:41;;;;;;;60.33;35.77;;;;;;;;;;4996564;28;20192;-78
2022/12/01 05:09:07;;;;;;;62.93;36.70;;;;;;;;;;4995976;28;20269;-78
2022/12/01 05:11:33;;;;;;;59.03;34.77;;;;;;;;;;4996350;28;20197;-77
2022/12/01 05:13:59;;;;;;;57.47;34.87;;;;;;;;;;4996249;28;20201;-77
2022/12/01 05:16:31;;;;;;;59.20;34.80;;;;;;;;;;4995053;28;20186;-77
2022/12/01 05:21:44;;;;;;;57.40;34.00;;;;;;;;;;4994489;28;20228;-77
2022/12/01 05:24:11;;;;;;;59.33;34.97;;;;;;;;;;4995272;28;20182;-78
2022/12/01 05:26:37;;;;;;;53.70;33.77;;;;;;;;;;4994957;28;20228;-77
2022/12/01 05:29:03;;;;;;;53.83;33.13;;;;;;;;;;4995206;28;20190;-78
2022/12/01 05:31:30;;;;;;;49.17;31.60;;;;;;;;;;4975101;28;20237;-78
2022/12/01 05:33:56;;;;;;;53.80;32.77;;;;;;;;;;4994871;28;20186;-78
2022/12/01 05:36:22;;;;;;;49.07;31.10;;;;;;;;;;4995743;28;20186;-78
2022/12/01 05:38:48;;;;;;;48.30;31.27;;;;;;;;;;4995852;28;20194;-78
2022/12/01 05:41:14;;;;;;;51.00;31.87;;;;;;;;;;4978381;28;20190;-78
2022/12/01 05:43:40;;;;;;;50.63;31.47;;;;;;;;;;5001347;28;20328;-78
2022/12/01 05:46:06;;;;;;;53.57;32.93;;;;;;;;;;4981809;28;20224;-84
2022/12/01 05:48:32;;;;;;;51.90;33.83;;;;;;;;;;4994940;28;20194;-84
2022/12/01 05:50:58;;;;;;;53.93;33.50;;;;;;;;;;4991710;28;20187;-84
2022/12/01 05:53:24;;;;;;;57.47;33.73;;;;;;;;;;4997695;28;20186;-79
2022/12/01 05:58:18;;;;;;;54.77;32.33;;;;;;;;;;5012749;28;20213;-78
2022/12/01 06:00:44;;;;;;;51.13;33.77;;;;;;;;;;4978920;28;20260;-80
2022/12/01 06:03:10;;;;;;;52.13;33.50;;;;;;;;;;5013633;28;20201;-84
2022/12/01 06:05:36;;;;;;;53.30;33.37;;;;;;;;;;4997480;28;20212;-85
2022/12/01 06:08:02;;;;;;;54.53;33.60;;;;;;;;;;4996028;28;20186;-84
2022/12/01 06:10:28;;;;;;;56.03;34.83;;;;;;;;;;4997158;28;20181;-85
2022/12/01 06:12:54;;;;;;;53.63;34.23;;;;;;;;;;4997477;28;20181;-85
2022/12/01 06:15:20;;;;;;;58.63;34.27;;;;;;;;;;5004439;28;20181;-85
2022/12/01 06:17:46;;;;;;;57.40;34.13;;;;;;;;;;4977388;28;20214;-80
2022/12/01 06:20:12;;;;;;;59.37;35.00;;;;;;;;;;4996819;28;20190;-80
2022/12/01 06:22:38;;;;;;;58.00;35.47;;;;;;;;;;4978031;28;20188;-80
2022/12/01 06:25:05;;;;;;;59.83;36.57;;;;;;;;;;5011818;28;20185;-80
2022/12/01 06:27:31;;;;;;;59.53;36.07;;;;;;;;;;4993811;28;20189;-80
2022/12/01 06:29:57;;;;;;;62.23;37.47;;;;;;;;;;4996122;28;20216;-80
2022/12/01 06:32:23;;;;;;;57.07;36.67;;;;;;;;;;4995767;28;20197;-80
2022/12/01 06:34:49;;;;;;;64.27;37.57;;;;;;;;;;5011668;28;20189;-85
2022/12/01 06:37:15;;;;;;;63.47;37.23;;;;;;;;;;4979748;28;20223;-84
2022/12/01 06:39:41;;;;;;;66.63;38.43;;;;;;;;;;4994126;28;20243;-84
2022/12/01 06:42:07;;;;;;;67.57;39.37;;;;;;;;;;4980879;28;20189;-84
2022/12/01 06:44:33;;;;;;;67.00;38.23;;;;;;;;;;5004825;28;20245;-84
2022/12/01 06:46:59;;;;;;;65.80;38.07;;;;;;;;;;4980384;28;20280;-84
2022/12/01 06:49:25;;;;;;;62.33;38.80;;;;;;;;;;4980155;28;20195;-84
2022/12/01 06:51:51;;;;;;;68.00;38.87;;;;;;;;;;4992876;28;20186;-78
2022/12/01 06:54:17;;;;;;;68.07;38.70;;;;;;;;;;4980143;28;20200;-78
2022/12/01 06:56:44;;;;;;;65.53;37.33;;;;;;;;;;4979024;28;20251;-78
2022/12/01 06:59:10;;;;;;;62.87;37.43;;;;;;;;;;4979880;28;20185;-78
2022/12/01 07:01:37;;;;;;;63.50;37.23;;;;;;;;;;4992674;28;20188;-78
2022/12/01 07:04:03;;;;;;;67.57;39.33;;;;;;;;;;4992763;28;20231;-78
2022/12/01 07:06:29;;;;;;;65.30;38.70;;;;;;;;;;4977236;28;20178;-78
2022/12/01 07:08:55;;;;;;;67.97;40.13;;;;;;;;;;4992582;28;20189;-79
2022/12/01 07:11:21;;;;;;;69.57;38.40;;;;;;;;;;4994277;28;20178;-79
2022/12/01 07:13:49;;;;;;;69.93;39.23;;;;;;;;;;4977265;28;20277;-80
2022/12/01 07:16:16;;;;;;;70.67;40.10;;;;;;;;;;4993126;28;20178;-80
2022/12/01 07:18:43;;;;;;;71.07;39.53;;;;;;;;;;4982615;28;20224;-80
2022/12/01 07:21:11;;;;;;;72.73;40.87;;;;;;;;;;4996256;28;20177;-80
2022/12/01 07:23:37;;;;;;;76.17;39.93;;;;;;;;;;5012770;28;20182;-80
2022/12/01 07:26:04;;;;;;;74.93;38.93;;;;;;;;;;4996529;28;20190;-79
2022/12/01 07:28:30;;;;;;;72.17;38.50;;;;;;;;;;5013932;28;20200;-80
2022/12/01 07:31:07;;;;;;;73.20;39.57;;;;;;;;;;4994139;28;20193;-80
2022/12/01 07:33:34;;;;;;;70.67;39.87;;;;;;;;;;4996165;28;20195;-80
2022/12/01 07:36:00;;;;;;;75.53;41.37;;;;;;;;;;5014349;28;20173;-85
2022/12/01 07:38:29;;;;;;;77.23;39.63;;;;;;;;;;4998595;28;20209;-85
2022/12/01 07:41:00;;;;;;;77.37;41.37;;;;;;;;;;4981857;28;20256;-85
2022/12/01 07:43:26;;;;;;;76.33;40.20;;;;;;;;;;4997005;28;20181;-80
2022/12/01 07:45:52;;;;;;;72.37;39.97;;;;;;;;;;4995811;28;20189;-78
2022/12/01 07:48:18;;;;;;;82.10;42.83;;;;;;;;;;4996316;28;20257;-78
2022/12/01 07:50:44;;;;;;;76.90;41.93;;;;;;;;;;4996393;28;20189;-78
2022/12/01 07:53:10;;;;;;;77.07;40.80;;;;;;;;;;4980240;28;20232;-78
2022/12/01 07:55:36;;;;;;;80.17;41.57;;;;;;;;;;4992847;28;20186;-78
2022/12/01 07:58:02;;;;;;;81.10;43.23;;;;;;;;;;5000853;28;20237;-79
2022/12/01 08:00:28;;;;;;;81.37;41.43;;;;;;;;;;5013145;28;20188;-79
2022/12/01 08:02:54;;;;;;;80.13;42.53;;;;;;;;;;5013391;28;20201;-80
2022/12/01 08:05:20;;;;;;;77.73;40.53;;;;;;;;;;5003302;28;20178;-79
2022/12/01 08:07:46;;;;;;;77.17;41.23;;;;;;;;;;4981680;28;20216;-79
2022/12/01 08:10:12;;;;;;;76.67;40.10;;;;;;;;;;4984055;28;20235;-79
2022/12/01 08:12:38;;;;;;;80.27;40.90;;;;;;;;;;4997812;28;20201;-79
2022/12/01 08:15:04;;;;;;;76.67;41.27;;;;;;;;;;4983508;28;20192;-86
2022/12/01 08:17:33;;;;;;;77.30;42.30;;;;;;;;;;4998297;28;20211;-84
2022/12/01 08:19:59;;;;;;;81.07;41.43;;;;;;;;;;5016518;28;20196;-85
2022/12/01 08:22:25;;;;;;;80.53;42.40;;;;;;;;;;4998418;28;20186;-79
2022/12/01 08:24:51;;;;;;;79.83;42.33;;;;;;;;;;4999366;28;20177;-80
2022/12/01 08:27:18;;;;;;;79.73;42.20;;;;;;;;;;4983549;28;20189;-79
2022/12/01 08:29:44;;;;;;;79.37;42.87;;;;;;;;;;4980066;28;20190;-80
2022/12/01 08:32:10;;;;;;;81.83;42.03;;;;;;;;;;4980283;28;20265;-78
2022/12/01 08:34:40;;;;;;;74.63;40.83;;;;;;;;;;5011199;28;20190;-78
2022/12/01 08:37:06;;;;;;;78.23;40.70;;;;;;;;;;4999400;28;20216;-79
2022/12/01 08:39:32;;;;;;;71.37;38.63;;;;;;;;;;4999561;28;20183;-79
2022/12/01 08:41:58;;;;;;;80.23;41.90;;;;;;;;;;4983242;28;20316;-79
2022/12/01 08:44:24;;;;;;;77.70;41.40;;;;;;;;;;4996836;28;20197;-79
2022/12/01 08:46:50;;;;;;;72.13;39.97;;;;;;;;;;4996827;28;20192;-79
2022/12/01 08:49:16;;;;;;;78.20;41.10;;;;;;;;;;5009628;28;20273;-80
2022/12/01 08:51:42;;;;;;;81.03;41.97;;;;;;;;;;5014142;28;20181;-80
2022/12/01 08:54:10;;;;;;;82.73;41.63;;;;;;;;;;4985421;28;20178;-80
2022/12/01 08:56:37;;;;;;;77.83;41.57;;;;;;;;;;5016138;28;20181;-80
2022/12/01 08:59:03;;;;;;;77.27;41.30;;;;;;;;;;5007965;28;20189;-80
2022/12/01 09:01:29;;;;;;;81.33;40.87;;;;;;;;;;4991894;28;20189;-80
2022/12/01 09:04:09;;;;;;;75.80;40.97;;;;;;;;;;4997188;28;20232;-79
2022/12/01 09:06:39;;;;;;;81.27;41.40;;;;;;;;;;5015111;28;20188;-78
2022/12/01 09:09:05;;;;;;;79.00;40.73;;;;;;;;;;5013396;28;20296;-77
2022/12/01 09:11:31;;;;;;;75.50;39.57;;;;;;;;;;4997586;28;20268;-84
2022/12/01 09:13:59;;;;;;;79.53;41.43;;;;;;;;;;5015926;28;20170;-85
2022/12/01 09:16:25;;;;;;;79.87;41.87;;;;;;;;;;5006553;28;20177;-84
2022/12/01 09:18:51;;;;;;;80.40;41.67;;;;;;;;;;4981501;28;20213;-84
2022/12/01 09:21:18;;;;;;;73.63;40.53;;;;;;;;;;4998482;28;20173;-80
2022/12/01 09:23:44;;;;;;;69.00;38.47;;;;;;;;;;4998236;28;20181;-80
2022/12/01 09:26:10;;;;;;;70.57;38.30;;;;;;;;;;4982503;28;20241;-80
2022/12/01 09:28:37;;;;;;;64.37;35.83;;;;;;;;;;4997591;28;20200;-80
2022/12/01 09:31:10;;;;;;;64.23;37.57;;;;;;;;;;4997749;28;20192;-80
2022/12/01 09:33:36;;;;;;;62.27;36.03;;;;;;;;;;5015315;28;20182;-80
2022/12/01 09:36:03;;;;;;;64.83;37.13;;;;;;;;;;5014955;28;20178;-81
2022/12/01 09:38:29;;;;;;;63.50;37.03;;;;;;;;;;5015180;28;20213;-78
2022/12/01 09:40:56;;;;;;;71.67;38.47;;;;;;;;;;5015442;28;20170;-78
2022/12/01 09:43:26;;;;;;;74.10;38.83;;;;;;;;;;5015133;28;20192;-78
2022/12/01 09:45:55;;;;;;;74.67;39.67;;;;;;;;;;4988927;28;20181;-78
2022/12/01 09:48:30;;;;;;;71.10;39.47;;;;;;;;;;5004740;28;20260;-78
2022/12/01 09:50:56;;;;;;;73.30;39.60;;;;;;;;;;5011237;28;20208;-78
2022/12/01 09:53:25;;;;;;;75.47;40.80;;;;;;;;;;4997925;28;20178;-78
2022/12/01 09:55:51;;;;;;;72.73;40.00;;;;;;;;;;5015398;28;20181;-79
2022/12/01 09:58:19;;;;;;;70.47;40.53;;;;;;;;;;4997680;28;20221;-79
2022/12/01 10:00:46;;;;;;;77.07;41.93;;;;;;;;;;5014675;28;20192;-79
2022/12/01 10:03:17;;;;;;;71.93;40.67;;;;;;;;;;4977486;28;20245;-79
2022/12/01 10:05:58;;;;;;;74.57;41.57;;;;;;;;;;4997250;28;20170;-78
2022/12/01 10:08:26;;;;;;;68.17;39.67;;;;;;;;;;4997501;28;20287;-79
2022/12/01 10:10:54;;;;;;;71.27;39.37;;;;;;;;;;4997349;28;20220;-84
2022/12/01 10:13:22;;;;;;;69.30;39.27;;;;;;;;;;5006066;28;20189;-85
2022/12/01 10:15:54;;;;;;;68.97;39.97;;;;;;;;;;4997350;28;20239;-85
2022/12/01 10:18:38;;;;;;;62.80;38.20;;;;;;;;;;4996557;28;20232;-85
2022/12/01 10:21:14;;;;;;;70.87;39.13;;;;;;;;;;4994576;28;20208;-85
2022/12/01 10:23:43;;;;;;;67.93;38.93;;;;;;;;;;4995810;28;20185;-81
2022/12/01 10:26:25;;;;;;;67.47;37.90;;;;;;;;;;5014643;28;20212;-80
2022/12/01 10:29:00;;;;;;;61.47;36.57;;;;;;;;;;5000238;28;20181;-78
2022/12/01 10:31:31;;;;;;;61.37;36.37;;;;;;;;;;4998515;28;20176;-86
2022/12/01 10:34:15;;;;;;;60.90;35.17;;;;;;;;;;4988756;28;20204;-86
2022/12/01 10:36:41;;;;;;;58.80;36.73;;;;;;;;;;5014065;28;20240;-86
2022/12/01 10:39:14;;;;;;;60.17;36.93;;;;;;;;;;5012973;28;20185;-81
2022/12/01 10:41:40;;;;;;;58.83;36.67;;;;;;;;;;5013616;28;20185;-80
2022/12/01 10:44:06;;;;;;;59.70;37.37;;;;;;;;;;4995350;28;20232;-80
2022/12/01 10:46:40;;;;;;;64.73;36.07;;;;;;;;;;5012188;28;20185;-78
2022/12/01 10:49:14;;;;;;;59.37;35.60;;;;;;;;;;4995550;28;20266;-79
2022/12/01 10:51:49;;;;;;;54.63;34.30;;;;;;;;;;4995656;28;20209;-78
2022/12/01 10:54:15;;;;;;;52.63;38.15;;;;;;;;;;4992570;28;20471;-79
2022/12/01 10:56:44;;;;;;;48.50;32.50;;;;;;;;;;4993435;28;20252;-78
2022/12/01 10:59:36;;;;;;;46.63;32.10;;;;;;;;;;5013953;28;20177;-78
2022/12/01 11:02:03;;;;;;;44.73;31.43;;;;;;;;;;5006009;28;20201;-79
2022/12/01 11:04:44;;;;;;;42.67;30.70;;;;;;;;;;4994321;28;20189;-80
2022/12/01 11:07:16;;;;;;;48.37;31.30;;;;;;;;;;4996466;28;20177;-79
2022/12/01 11:09:44;;;;;;;43.00;30.67;;;;;;;;;;4995783;28;20265;-80
2022/12/01 11:12:13;;;;;;;43.77;29.33;;;;;;;;;;5012578;28;20276;-80
2022/12/01 11:14:48;;;;;;;44.20;34.08;;;;;;;;;;5011772;28;20426;-80
2022/12/01 11:17:26;;;;;;;46.55;36.30;;;;;;;;;;4995326;28;20431;-80
2022/12/01 11:19:52;;;;;;;46.65;36.90;;;;;;;;;;4992965;28;20462;-85
2022/12/01 11:22:23;;;;;;;46.90;36.30;;;;;;;;;;5011798;28;20430;-85
2022/12/01 11:24:52;;;;;;;45.40;36.80;;;;;;;;;;4992114;28;20516;-85
2022/12/01 11:27:20;;;;;;;43.63;34.70;;;;;;;;;;4987944;28;20427;-86
2022/12/01 11:29:48;;;;;;;43.50;35.10;;;;;;;;;;4994814;28;20438;-85
2022/12/01 11:32:22;;;;;;;45.97;35.88;;;;;;;;;;5009641;28;20445;-85
2022/12/01 11:34:57;;;;;;;44.42;34.58;;;;;;;;;;4995175;28;20427;-86
2022/12/01 11:37:25;;;;;;;42.87;30.30;;;;;;;;;;4996139;28;20205;-86
2022/12/01 11:39:52;;;;;;;41.28;31.05;;;;;;;;;;4995335;28;20439;-86
2022/12/01 11:42:22;;;;;;;43.63;31.17;;;;;;;;;;4997493;28;20264;-82
2022/12/01 11:44:50;;;;;;;42.37;31.57;;;;;;;;;;4999765;28;20173;-82
2022/12/01 11:47:23;;;;;;;41.87;30.07;;;;;;;;;;4999753;28;20185;-82
2022/12/01 11:49:56;;;;;;;42.40;30.23;;;;;;;;;;4999503;28;20188;-81
2022/12/01 11:52:24;;;;;;;40.43;28.40;;;;;;;;;;5017489;28;20208;-81
2022/12/01 11:55:01;;;;;;;36.40;26.27;;;;;;;;;;4997703;28;20204;-81
2022/12/01 11:57:28;;;;;;;38.95;30.30;;;;;;;;;;4997929;28;20489;-81
2022/12/01 11:59:54;;;;;;;38.33;28.37;;;;;;;;;;5016808;28;20437;-81
2022/12/01 12:02:23;;;;;;;35.30;26.60;;;;;;;;;;5000269;28;20212;-81
2022/12/01 12:04:58;;;;;;;36.77;25.80;;;;;;;;;;5002984;28;20182;-81
2022/12/01 12:07:24;;;;;;;39.40;29.67;;;;;;;;;;5016007;28;20431;-81
2022/12/01 12:09:56;;;;;;;36.50;26.23;;;;;;;;;;4999089;28;20235;-79
2022/12/01 12:12:22;;;;;;;38.57;26.60;;;;;;;;;;4998080;28;20176;-80
2022/12/01 12:14:48;;;;;;;37.53;25.90;;;;;;;;;;4998897;28;20185;-79
2022/12/01 12:17:14;;;;;;;41.00;27.27;;;;;;;;;;4998221;28;20206;-79
2022/12/01 12:19:46;;;;;;;39.37;27.23;;;;;;;;;;4995306;28;20415;-79
2022/12/01 12:22:18;;;;;;;41.10;30.80;;;;;;;;;;4998382;28;20407;-78
2022/12/01 12:25:04;;;;;;;34.28;27.38;;;;;;;;;;4998326;28;20446;-78
2022/12/01 12:27:48;;;;;;;38.28;29.35;;;;;;;;;;4996970;28;20454;-79
2022/12/01 12:30:14;;;;;;;34.90;24.93;;;;;;;;;;4995553;28;20185;-79
2022/12/01 12:32:45;;;;;;;36.60;26.10;;;;;;;;;;4997129;28;20185;-81
2022/12/01 12:35:20;;;;;;;37.63;26.60;;;;;;;;;;4998802;28;20192;-81
2022/12/01 12:38:07;;;;;;;41.03;27.23;;;;;;;;;;4998886;28;20235;-80
2022/12/01 12:40:45;;;;;;;39.13;27.70;;;;;;;;;;4999737;28;20184;-78
2022/12/01 12:43:20;;;;;;;41.13;28.03;;;;;;;;;;4998522;28;20203;-80
2022/12/01 12:45:49;;;;;;;44.20;28.27;;;;;;;;;;4998674;28;20189;-80
2022/12/01 12:48:31;;;;;;;44.60;28.73;;;;;;;;;;4997773;28;20188;-80
2022/12/01 12:51:03;;;;;;;42.20;27.80;;;;;;;;;;4998701;28;20193;-81
2022/12/01 12:53:33;;;;;;;42.17;27.73;;;;;;;;;;5015643;28;20253;-81
2022/12/01 12:56:01;;;;;;;42.50;28.57;;;;;;;;;;4997396;28;20207;-81
2022/12/01 12:58:27;;;;;;;43.87;29.47;;;;;;;;;;5014710;28;20244;-81
2022/12/01 13:00:57;;;;;;;43.75;33.63;;;;;;;;;;4997477;28;20514;-81
2022/12/01 13:03:42;;;;;;;41.57;30.00;;;;;;;;;;5015664;28;20173;-81
2022/12/01 13:06:08;;;;;;;42.90;32.50;;;;;;;;;;5013774;28;20431;-81
2022/12/01 13:09:03;;;;;;;45.17;34.08;;;;;;;;;;5012785;28;20429;-81
2022/12/01 13:11:31;;;;;;;43.50;33.13;;;;;;;;;;4997826;28;20519;-81
2022/12/01 13:14:23;;;;;;;44.63;34.78;;;;;;;;;;4995296;28;20431;-81
2022/12/01 13:16:50;;;;;;;43.92;34.55;;;;;;;;;;4977923;28;20438;-80
2022/12/01 13:19:33;;;;;;;45.67;35.10;;;;;;;;;;5014816;28;20410;-81
2022/12/01 13:21:59;;;;;;;44.43;30.53;;;;;;;;;;5014634;28;20269;-81
2022/12/01 13:24:28;;;;;;;46.50;36.00;;;;;;;;;;5014840;28;20411;-81
2022/12/01 13:26:56;;;;;;;46.03;30.63;;;;;;;;;;5007213;28;20185;-81
2022/12/01 13:29:23;;;;;;;43.77;31.43;;;;;;;;;;4997747;28;20181;-81
2022/12/01 13:31:51;;;;;;;48.23;35.90;;;;;;;;;;4996015;28;20466;-79
2022/12/01 13:34:37;;;;;;;45.93;32.30;;;;;;;;;;5015598;28;20205;-79
2022/12/01 13:37:04;;;;;;;46.55;35.97;;;;;;;;;;4996320;28;20435;-79
2022/12/01 13:39:37;;;;;;;47.70;35.60;;;;;;;;;;4997625;28;20502;-79
2022/12/01 13:42:06;;;;;;;47.07;32.67;;;;;;;;;;5002320;28;20185;-79
2022/12/01 13:44:49;;;;;;;45.73;33.67;;;;;;;;;;5012126;28;20411;-78
2022/12/01 13:47:15;;;;;;;72.28;35.20;;;;;;;;;;4997698;28;20465;-78
2022/12/01 13:49:46;;;;;;;50.33;31.87;;;;;;;;;;4998349;28;20185;-86
2022/12/01 13:52:15;;;;;;;51.07;33.10;;;;;;;;;;5015655;28;20226;-87
2022/12/01 13:54:59;;;;;;;43.83;30.93;;;;;;;;;;4997971;28;20185;-86
2022/12/01 13:57:26;;;;;;;46.70;31.73;;;;;;;;;;5005457;28;20233;-87
2022/12/01 13:59:58;;;;;;;49.67;31.40;;;;;;;;;;5010016;28;20256;-88
2022/12/01 14:02:25;;;;;;;48.33;31.40;;;;;;;;;;4995700;28;20174;-87
2022/12/01 14:04:52;;;;;;;46.93;32.77;;;;;;;;;;4994592;28;20248;-86
2022/12/01 14:07:20;;;;;;;46.97;32.07;;;;;;;;;;5005761;28;20182;-81
2022/12/01 14:09:48;;;;;;;47.50;31.43;;;;;;;;;;5013888;28;20191;-81
2022/12/01 14:12:27;;;;;;;47.13;31.47;;;;;;;;;;4996877;28;20185;-80
2022/12/01 14:14:57;;;;;;;44.37;31.20;;;;;;;;;;5015132;28;20260;-81
2022/12/01 14:17:26;;;;;;;46.47;32.23;;;;;;;;;;5014793;28;20205;-81
2022/12/01 14:19:52;;;;;;;44.97;31.70;;;;;;;;;;4997682;28;20185;-81
2022/12/01 14:22:38;;;;;;;44.80;30.07;;;;;;;;;;5013892;28;20170;-86
2022/12/01 14:25:06;;;;;;;46.27;30.57;;;;;;;;;;4978132;28;20185;-87
2022/12/01 14:27:39;;;;;;;44.67;30.67;;;;;;;;;;4995486;28;20178;-86
2022/12/01 14:30:24;;;;;;;46.37;31.73;;;;;;;;;;4995157;28;20182;-85
2022/12/01 14:32:50;;;;;;;47.13;31.93;;;;;;;;;;4987985;28;20235;-85
2022/12/01 14:35:16;;;;;;;45.97;31.13;;;;;;;;;;4996926;28;20263;-84